createdAt,value
2019-04-25T00:01:15.713Z,9.63
2019-04-25T00:03:45.281Z,9.59
2019-04-25T00:06:15.282Z,9.54
2019-04-25T00:08:45.308Z,9.49
2019-04-25T00:11:14.753Z,9.43
2019-04-25T00:13:44.114Z,9.41
2019-04-25T00:16:16.853Z,9.40
2019-04-25T00:18:46.345Z,9.38
2019-04-25T00:21:26.337Z,9.47
2019-04-25T00:23:57.287Z,9.46
2019-04-25T00:26:28.454Z,9.41
2019-04-25T00:28:57.803Z,9.36
2019-04-25T00:31:27.510Z,9.30
2019-04-25T00:33:56.867Z,9.22
2019-04-25T00:36:26.330Z,9.25
2019-04-25T00:38:55.662Z,9.26
2019-04-25T00:41:24.957Z,9.23
2019-04-25T00:43:54.324Z,9.27
2019-04-25T00:46:23.745Z,9.19
2019-04-25T00:48:53.026Z,9.20
2019-04-25T00:51:22.505Z,9.14
2019-04-25T00:53:54.698Z,9.08
2019-04-25T00:56:23.055Z,9.03
2019-04-25T00:59:03.198Z,9.00
2019-04-25T01:01:41.406Z,8.96
2019-04-25T01:04:12.264Z,9.03
2019-04-25T01:06:42.196Z,9.04
2019-04-25T01:09:16.143Z,9.08
2019-04-25T01:11:45.924Z,8.99
2019-04-25T01:14:15.380Z,8.94
2019-04-25T01:16:45.067Z,8.94
2019-04-25T01:19:14.331Z,8.94
2019-04-25T01:21:44.040Z,8.84
2019-04-25T01:24:15.727Z,8.80
2019-04-25T01:26:47.510Z,8.78
2019-04-25T01:29:16.834Z,8.75
2019-04-25T01:31:46.614Z,8.85
2019-04-25T01:34:17.648Z,8.86
2019-04-25T01:37:05.877Z,8.83
2019-04-25T01:39:40.639Z,8.73
2019-04-25T01:42:20.425Z,8.72
2019-04-25T01:44:51.659Z,8.72
2019-04-25T01:47:22.007Z,8.70
2019-04-25T01:49:52.269Z,8.66
2019-04-25T01:52:23.525Z,8.67
2019-04-25T01:54:54.705Z,8.62
2019-04-25T01:57:24.075Z,8.69
2019-04-25T01:59:54.065Z,8.72
2019-04-25T02:02:26.212Z,8.75
2019-04-25T02:04:58.803Z,8.72
2019-04-25T02:07:26.510Z,8.73
2019-04-25T02:09:56.019Z,8.69
2019-04-25T02:12:27.075Z,8.67
2019-04-25T02:14:58.077Z,8.63
2019-04-25T02:17:27.516Z,8.70
2019-04-25T02:19:57.823Z,8.80
2019-04-25T02:22:27.229Z,8.70
2019-04-25T02:24:57.109Z,8.72
2019-04-25T02:27:26.677Z,8.66
2019-04-25T02:29:57.208Z,8.62
2019-04-25T02:32:26.608Z,8.51
2019-04-25T02:35:00.508Z,8.59
2019-04-25T02:37:27.067Z,8.50
2019-04-25T02:39:59.744Z,8.51
2019-04-25T02:42:27.634Z,8.48
2019-04-25T02:45:00.672Z,8.45
2019-04-25T02:47:34.485Z,8.40
2019-04-25T02:50:09.716Z,8.44
2019-04-25T02:52:40.784Z,8.40
2019-04-25T02:55:11.448Z,8.35
2019-04-25T02:57:44.703Z,8.38
2019-04-25T03:00:25.778Z,8.35
2019-04-25T03:02:57.335Z,8.36
2019-04-25T03:05:26.179Z,8.29
2019-04-25T03:07:55.485Z,8.24
2019-04-25T03:10:26.951Z,8.26
2019-04-25T03:12:55.730Z,8.21
2019-04-25T03:15:25.004Z,8.21
2019-04-25T03:17:54.713Z,8.22
2019-04-25T03:20:28.526Z,8.17
2019-04-25T03:23:01.117Z,8.17
2019-04-25T03:25:30.502Z,8.23
2019-04-25T03:27:59.871Z,8.17
2019-04-25T03:30:29.142Z,8.21
2019-04-25T03:32:58.430Z,8.30
2019-04-25T03:35:27.829Z,8.33
2019-04-25T03:37:57.094Z,8.28
2019-04-25T03:40:26.391Z,8.32
2019-04-25T03:42:55.650Z,8.41
2019-04-25T03:45:24.944Z,8.31
2019-04-25T03:47:54.214Z,8.44
2019-04-25T03:50:23.517Z,8.45
2019-04-25T03:52:54.046Z,8.51
2019-04-25T03:55:24.466Z,8.49
2019-04-25T03:57:53.968Z,8.51
2019-04-25T04:00:24.096Z,8.59
2019-04-25T04:02:55.415Z,8.60
2019-04-25T04:05:24.811Z,8.70
2019-04-25T04:07:54.090Z,8.71
2019-04-25T04:10:24.897Z,8.74
2019-04-25T04:12:54.371Z,8.75
2019-04-25T04:15:25.217Z,8.84
2019-04-25T04:17:56.944Z,8.86
2019-04-25T04:20:33.668Z,8.94
2019-04-25T04:23:05.580Z,8.99
2019-04-25T04:25:35.170Z,9.00
2019-04-25T04:28:04.440Z,9.05
2019-04-25T04:30:33.992Z,9.13
2019-04-25T04:33:03.688Z,9.14
2019-04-25T04:35:34.399Z,9.11
2019-04-25T04:38:04.301Z,9.19
2019-04-25T04:40:34.405Z,9.17
2019-04-25T04:43:04.571Z,9.21
2019-04-25T04:45:34.486Z,9.24
2019-04-25T04:48:03.933Z,9.29
2019-04-25T04:50:33.617Z,9.37
2019-04-25T04:53:03.908Z,9.37
2019-04-25T04:55:34.341Z,9.38
2019-04-25T04:58:04.234Z,9.37
2019-04-25T05:00:33.912Z,9.41
2019-04-25T05:03:11.190Z,9.41
2019-04-25T05:05:43.934Z,9.39
2019-04-25T05:08:25.446Z,9.42
2019-04-25T05:10:57.264Z,9.44
2019-04-25T05:13:26.199Z,9.42
2019-04-25T05:15:55.560Z,9.43
2019-04-25T05:18:34.512Z,9.45
2019-04-25T05:20:55.824Z,9.45
2019-04-25T05:23:25.135Z,9.53
2019-04-25T05:25:55.777Z,9.56
2019-04-25T05:28:25.255Z,9.59
2019-04-25T05:31:05.267Z,9.58
2019-04-25T05:33:35.638Z,9.56
2019-04-25T05:36:05.876Z,9.57
2019-04-25T05:38:35.372Z,9.57
2019-04-25T05:41:09.102Z,9.58
2019-04-25T05:43:38.408Z,9.56
2019-04-25T05:46:07.756Z,9.55
2019-04-25T05:48:37.106Z,9.52
2019-04-25T05:51:06.403Z,9.57
2019-04-25T05:53:35.686Z,9.54
2019-04-25T05:56:06.504Z,9.67
2019-04-25T05:58:35.813Z,9.73
2019-04-25T06:01:05.140Z,9.79
2019-04-25T06:03:35.517Z,9.95
2019-04-25T06:06:05.028Z,10.09
2019-04-25T06:08:36.019Z,10.05
2019-04-25T06:11:13.583Z,10.10
2019-04-25T06:13:45.727Z,10.19
2019-04-25T06:16:24.262Z,10.22
2019-04-25T06:19:13.727Z,10.15
2019-04-25T06:21:35.964Z,10.13
2019-04-25T06:24:25.553Z,10.24
2019-04-25T06:26:57.455Z,10.39
2019-04-25T06:29:26.758Z,10.58
2019-04-25T06:32:05.636Z,10.67
2019-04-25T06:34:29.519Z,10.73
2019-04-25T06:36:58.446Z,10.82
2019-04-25T06:39:27.992Z,10.80
2019-04-25T06:41:57.423Z,10.80
2019-04-25T06:44:29.336Z,10.67
2019-04-25T06:47:06.399Z,10.56
2019-04-25T06:49:37.506Z,10.53
2019-04-25T06:52:06.834Z,10.56
2019-04-25T06:54:36.278Z,10.49
2019-04-25T06:57:05.601Z,10.54
2019-04-25T06:59:37.802Z,10.53
2019-04-25T07:02:05.939Z,10.55
2019-04-25T07:04:35.211Z,10.56
2019-04-25T07:07:12.374Z,10.61
2019-04-25T07:09:36.124Z,10.70
2019-04-25T07:12:05.442Z,10.75
2019-04-25T07:14:36.941Z,10.79
2019-04-25T07:17:05.729Z,10.83
2019-04-25T07:19:35.605Z,10.88
2019-04-25T07:22:05.269Z,10.97
2019-04-25T07:24:36.006Z,11.05
2019-04-25T07:27:07.028Z,11.06
2019-04-25T07:29:54.285Z,11.18
2019-04-25T07:32:30.839Z,11.23
2019-04-25T07:34:59.522Z,11.24
2019-04-25T07:37:29.837Z,11.31
2019-04-25T07:39:59.723Z,11.33
2019-04-25T07:42:29.828Z,11.35
2019-04-25T07:45:01.301Z,11.43
2019-04-25T07:47:31.933Z,11.55
2019-04-25T07:50:01.794Z,11.55
2019-04-25T07:52:33.230Z,11.43
2019-04-25T07:55:03.788Z,11.55
2019-04-25T07:57:34.897Z,11.50
2019-04-25T08:00:13.118Z,11.63
2019-04-25T08:02:44.237Z,11.68
2019-04-25T08:05:17.414Z,11.74
2019-04-25T08:07:46.776Z,11.77
2019-04-25T08:10:16.829Z,11.86
2019-04-25T08:12:47.513Z,11.90
2019-04-25T08:15:18.870Z,11.96
2019-04-25T08:18:08.136Z,11.97
2019-04-25T08:20:37.776Z,12.00
2019-04-25T08:23:07.080Z,12.11
2019-04-25T08:25:39.265Z,12.27
2019-04-25T08:28:07.456Z,12.35
2019-04-25T08:30:38.084Z,12.51
2019-04-25T08:33:07.747Z,12.69
2019-04-25T08:35:38.150Z,13.01
2019-04-25T08:38:07.596Z,13.41
2019-04-25T08:40:37.722Z,13.78
2019-04-25T08:43:07.918Z,14.04
2019-04-25T08:45:38.355Z,14.61
2019-04-25T08:48:08.017Z,14.63
2019-04-25T08:50:53.980Z,14.37
2019-04-25T08:53:24.903Z,14.73
2019-04-25T08:55:58.571Z,14.98
2019-04-25T08:58:44.653Z,15.41
2019-04-25T09:01:18.884Z,15.38
2019-04-25T09:03:50.991Z,15.99
2019-04-25T09:06:20.295Z,15.70
2019-04-25T09:08:49.794Z,15.33
2019-04-25T09:11:19.675Z,15.47
2019-04-25T09:13:49.145Z,15.32
2019-04-25T09:16:18.436Z,15.90
2019-04-25T09:18:47.754Z,16.21
2019-04-25T09:21:17.039Z,16.27
2019-04-25T09:23:46.335Z,16.24
2019-04-25T09:26:15.637Z,17.46
2019-04-25T09:28:46.593Z,17.88
2019-04-25T09:31:16.081Z,18.32
2019-04-25T09:33:50.049Z,16.96
2019-04-25T09:36:19.367Z,16.89
2019-04-25T09:38:50.308Z,18.08
2019-04-25T09:41:19.587Z,17.49
2019-04-25T09:43:52.991Z,17.36
2019-04-25T09:46:35.262Z,17.83
2019-04-25T09:49:06.922Z,19.02
2019-04-25T09:51:37.935Z,18.48
2019-04-25T09:54:24.840Z,18.42
2019-04-25T09:56:55.897Z,17.51
2019-04-25T09:59:27.953Z,16.99
2019-04-25T10:01:56.561Z,19.03
2019-04-25T10:04:26.506Z,21.42
2019-04-25T10:06:55.815Z,17.77
2019-04-25T10:09:25.500Z,17.47
2019-04-25T10:11:54.887Z,17.83
2019-04-25T10:14:39.010Z,18.83
2019-04-25T10:17:08.528Z,18.48
2019-04-25T10:19:37.821Z,18.73
2019-04-25T10:22:07.115Z,18.94
2019-04-25T10:24:37.417Z,18.06
2019-04-25T10:27:08.818Z,17.82
2019-04-25T10:29:44.817Z,17.90
2019-04-25T10:32:10.357Z,18.20
2019-04-25T10:34:40.309Z,19.04
2019-04-25T10:37:13.805Z,18.11
2019-04-25T10:39:43.847Z,18.16
2019-04-25T10:42:14.061Z,18.61
2019-04-25T10:44:46.123Z,19.85
2019-04-25T10:47:15.552Z,20.80
2019-04-25T10:49:45.860Z,19.65
2019-04-25T10:52:15.663Z,20.41
2019-04-25T10:54:45.814Z,19.38
2019-04-25T10:57:16.151Z,19.29
2019-04-25T10:59:55.230Z,19.82
2019-04-25T11:02:17.498Z,20.13
2019-04-25T11:04:49.807Z,20.48
2019-04-25T11:07:19.225Z,19.90
2019-04-25T11:09:49.238Z,20.49
2019-04-25T11:12:19.547Z,21.86
2019-04-25T11:14:50.528Z,19.79
2019-04-25T11:17:19.978Z,20.15
2019-04-25T11:19:49.445Z,19.79
2019-04-25T11:22:19.143Z,20.02
2019-04-25T11:24:48.666Z,19.41
2019-04-25T11:27:18.096Z,19.61
2019-04-25T11:29:48.354Z,18.97
2019-04-25T11:32:19.945Z,18.94
2019-04-25T11:34:49.571Z,19.11
2019-04-25T11:37:20.628Z,19.02
2019-04-25T11:39:51.584Z,18.67
2019-04-25T11:42:20.885Z,18.57
2019-04-25T11:44:50.335Z,18.65
2019-04-25T11:47:19.858Z,18.57
2019-04-25T11:49:49.342Z,19.14
2019-04-25T11:52:27.583Z,18.68
2019-04-25T11:54:50.095Z,18.60
2019-04-25T11:57:19.422Z,18.57
2019-04-25T11:59:50.455Z,18.43
2019-04-25T12:02:20.472Z,18.21
2019-04-25T12:04:49.787Z,18.01
2019-04-25T12:07:19.323Z,17.80
2019-04-25T12:09:48.822Z,17.48
2019-04-25T12:12:18.122Z,17.31
2019-04-25T12:14:47.661Z,17.39
2019-04-25T12:17:17.527Z,17.25
2019-04-25T12:19:47.054Z,17.04
2019-04-25T12:22:18.984Z,17.11
2019-04-25T12:24:48.286Z,17.01
2019-04-25T12:27:17.603Z,17.02
2019-04-25T12:29:46.911Z,17.06
2019-04-25T12:32:16.211Z,17.05
2019-04-25T12:34:45.850Z,17.00
2019-04-25T12:37:15.257Z,16.99
2019-04-25T12:39:44.566Z,16.88
2019-04-25T12:42:14.512Z,16.85
2019-04-25T12:45:01.870Z,16.49
2019-04-25T12:47:39.643Z,16.31
2019-04-25T12:50:09.392Z,15.91
2019-04-25T12:52:38.669Z,15.57
2019-04-25T12:55:09.202Z,15.34
2019-04-25T12:57:38.505Z,15.20
2019-04-25T13:00:08.073Z,15.12
2019-04-25T13:02:37.926Z,14.98
2019-04-25T13:05:07.405Z,14.67
2019-04-25T13:07:38.583Z,14.24
2019-04-25T13:10:08.688Z,13.97
2019-04-25T13:12:39.493Z,13.66
2019-04-25T13:15:09.851Z,13.25
2019-04-25T13:17:39.565Z,13.09
2019-04-25T13:20:09.585Z,13.05
2019-04-25T13:22:38.905Z,12.94
2019-04-25T13:25:08.523Z,12.73
2019-04-25T13:27:39.518Z,12.64
2019-04-25T13:30:14.075Z,12.53
2019-04-25T13:33:04.404Z,12.46
2019-04-25T13:35:35.548Z,12.30
2019-04-25T13:38:04.948Z,12.34
2019-04-25T13:40:34.257Z,12.30
2019-04-25T13:43:05.218Z,12.39
2019-04-25T13:45:34.538Z,12.35
2019-04-25T13:48:04.937Z,12.27
2019-04-25T13:50:34.701Z,12.21
2019-04-25T13:53:03.982Z,12.25
2019-04-25T13:55:34.960Z,12.26
2019-04-25T13:58:05.479Z,12.28
2019-04-25T14:00:36.226Z,12.47
2019-04-25T14:03:05.638Z,12.51
2019-04-25T14:05:35.441Z,12.45
2019-04-25T14:08:04.731Z,12.41
2019-04-25T14:10:34.420Z,12.40
2019-04-25T14:13:05.057Z,12.42
2019-04-25T14:15:37.166Z,12.42
2019-04-25T14:18:11.489Z,12.50
2019-04-25T14:20:43.606Z,12.56
2019-04-25T14:23:15.049Z,12.56
2019-04-25T14:25:44.524Z,12.50
2019-04-25T14:28:14.207Z,12.63
2019-04-25T14:30:44.293Z,12.63
2019-04-25T14:33:14.721Z,12.68
2019-04-25T14:35:44.037Z,12.76
2019-04-25T14:38:14.936Z,12.69
2019-04-25T14:40:47.202Z,12.77
2019-04-25T14:43:16.547Z,12.72
2019-04-25T14:45:45.912Z,12.69
2019-04-25T14:48:15.259Z,12.56
2019-04-25T14:50:44.555Z,12.53
2019-04-25T14:53:13.827Z,12.48
2019-04-25T14:55:44.784Z,12.52
2019-04-25T14:58:15.721Z,12.49
2019-04-25T15:00:46.843Z,12.57
2019-04-25T15:03:16.198Z,12.61
2019-04-25T15:05:45.555Z,12.63
2019-04-25T15:08:14.852Z,12.72
2019-04-25T15:10:44.439Z,12.73
2019-04-25T15:13:14.122Z,12.80
2019-04-25T15:15:43.492Z,12.88
2019-04-25T15:18:14.302Z,12.91
2019-04-25T15:20:43.608Z,13.07
2019-04-25T15:23:12.883Z,13.16
2019-04-25T15:25:42.343Z,13.31
2019-04-25T15:28:11.650Z,13.68
2019-04-25T15:30:41.303Z,13.76
2019-04-25T15:33:12.467Z,13.67
2019-04-25T15:35:44.969Z,14.10
2019-04-25T15:38:15.426Z,13.99
2019-04-25T15:41:02.338Z,13.68
2019-04-25T15:43:33.484Z,13.40
2019-04-25T15:46:16.678Z,13.35
2019-04-25T15:48:45.926Z,13.23
2019-04-25T15:51:15.262Z,13.10
2019-04-25T15:53:44.610Z,13.04
2019-04-25T15:56:14.003Z,12.98
2019-04-25T15:58:43.235Z,12.84
2019-04-25T16:01:13.209Z,12.84
2019-04-25T16:03:42.493Z,12.93
2019-04-25T16:06:11.882Z,12.96
2019-04-25T16:08:41.221Z,13.04
2019-04-25T16:11:10.534Z,13.17
2019-04-25T16:13:39.933Z,13.21
2019-04-25T16:16:09.565Z,13.41
2019-04-25T16:18:41.183Z,13.47
2019-04-25T16:21:10.802Z,13.34
2019-04-25T16:23:40.093Z,13.25
2019-04-25T16:26:09.663Z,13.36
2019-04-25T16:28:39.263Z,13.25
2019-04-25T16:31:10.264Z,13.21
2019-04-25T16:33:39.762Z,13.29
2019-04-25T16:36:09.316Z,13.69
2019-04-25T16:38:39.062Z,13.76
2019-04-25T16:41:09.439Z,13.61
2019-04-25T16:43:41.041Z,13.86
2019-04-25T16:46:10.865Z,13.88
2019-04-25T16:48:41.073Z,13.94
2019-04-25T16:51:10.609Z,14.08
2019-04-25T16:53:40.110Z,14.14
2019-04-25T16:56:10.933Z,14.05
2019-04-25T16:58:40.778Z,13.89
2019-04-25T17:01:11.962Z,13.78
2019-04-25T17:03:41.849Z,13.63
2019-04-25T17:06:11.309Z,13.63
2019-04-25T17:08:41.503Z,13.42
2019-04-25T17:11:11.053Z,13.32
2019-04-25T17:13:42.595Z,13.28
2019-04-25T17:16:13.632Z,13.19
2019-04-25T17:18:44.545Z,13.25
2019-04-25T17:21:14.143Z,13.24
2019-04-25T17:23:43.694Z,13.26
2019-04-25T17:26:15.052Z,13.26
2019-04-25T17:28:46.682Z,13.16
2019-04-25T17:31:17.810Z,13.12
2019-04-25T17:33:54.796Z,13.02
2019-04-25T17:36:33.258Z,13.06
2019-04-25T17:39:04.228Z,13.05
2019-04-25T17:41:36.089Z,12.96
2019-04-25T17:44:05.670Z,12.95
2019-04-25T17:46:36.125Z,12.96
2019-04-25T17:49:05.595Z,12.94
2019-04-25T17:51:34.921Z,12.88
2019-04-25T17:54:04.410Z,12.84
2019-04-25T17:56:34.465Z,12.78
2019-04-25T17:59:03.847Z,12.77
2019-04-25T18:01:34.064Z,12.76
2019-04-25T18:04:04.776Z,12.66
2019-04-25T18:06:34.365Z,12.64
2019-04-25T18:09:06.221Z,12.59
2019-04-25T18:11:36.743Z,12.55
2019-04-25T18:14:07.552Z,12.34
2019-04-25T18:16:44.943Z,12.21
2019-04-25T18:19:15.989Z,12.08
2019-04-25T18:21:45.452Z,11.99
2019-04-25T18:24:33.185Z,11.99
2019-04-25T18:27:04.250Z,11.92
2019-04-25T18:29:35.060Z,11.80
2019-04-25T18:32:05.741Z,11.79
2019-04-25T18:34:37.421Z,11.83
2019-04-25T18:37:24.768Z,11.78
2019-04-25T18:39:58.139Z,11.76
2019-04-25T18:42:29.072Z,11.69
2019-04-25T18:44:58.442Z,11.71
2019-04-25T18:47:29.395Z,11.67
2019-04-25T18:50:00.426Z,11.61
2019-04-25T18:52:38.580Z,11.59
2019-04-25T18:55:16.321Z,11.58
2019-04-25T18:58:03.703Z,11.61
2019-04-25T19:00:34.697Z,11.54
2019-04-25T19:03:05.666Z,11.49
2019-04-25T19:05:40.978Z,11.47
2019-04-25T19:08:10.427Z,11.48
2019-04-25T19:10:41.273Z,11.35
2019-04-25T19:13:12.749Z,11.24
2019-04-25T19:15:43.095Z,11.15
2019-04-25T19:18:12.490Z,11.08
2019-04-25T19:20:42.155Z,11.06
2019-04-25T19:23:11.495Z,11.09
2019-04-25T19:25:41.599Z,11.05
2019-04-25T19:28:11.957Z,11.03
2019-04-25T19:30:41.269Z,11.01
2019-04-25T19:33:10.596Z,10.96
2019-04-25T19:35:40.786Z,10.95
2019-04-25T19:38:10.972Z,10.97
2019-04-25T19:40:42.264Z,10.97
2019-04-25T19:43:21.827Z,10.98
2019-04-25T19:45:51.240Z,10.88
2019-04-25T19:48:20.528Z,10.85
2019-04-25T19:50:50.632Z,10.84
2019-04-25T19:53:19.999Z,10.83
2019-04-25T19:55:49.714Z,10.75
2019-04-25T19:58:19.091Z,10.71
2019-04-25T20:00:50.834Z,10.70
2019-04-25T20:03:21.939Z,10.71
2019-04-25T20:06:10.734Z,10.78
2019-04-25T20:08:42.277Z,10.68
2019-04-25T20:11:14.360Z,10.68
2019-04-25T20:13:45.427Z,10.63
2019-04-25T20:16:15.083Z,10.65
2019-04-25T20:18:45.603Z,10.64
2019-04-25T20:21:15.293Z,10.67
2019-04-25T20:23:45.389Z,10.68
2019-04-25T20:26:15.822Z,10.62
2019-04-25T20:28:46.150Z,10.60
2019-04-25T20:31:15.726Z,10.64
2019-04-25T20:33:45.572Z,10.70
2019-04-25T20:36:17.979Z,10.62
2019-04-25T20:38:47.136Z,10.70
2019-04-25T20:41:16.689Z,10.70
2019-04-25T20:43:46.455Z,10.62
2019-04-25T20:46:16.904Z,10.59
2019-04-25T20:48:46.873Z,10.59
2019-04-25T20:51:16.649Z,10.58
2019-04-25T20:53:46.476Z,10.46
2019-04-25T20:56:16.693Z,10.51
2019-04-25T20:58:47.694Z,10.46
2019-04-25T21:01:17.156Z,10.41
2019-04-25T21:03:47.508Z,10.38
2019-04-25T21:06:28.392Z,10.37
2019-04-25T21:08:57.762Z,10.36
2019-04-25T21:11:28.120Z,10.35
2019-04-25T21:14:01.823Z,10.33
2019-04-25T21:16:51.870Z,10.35
2019-04-25T21:19:22.865Z,10.31
2019-04-25T21:21:52.158Z,10.35
2019-04-25T21:24:21.461Z,10.29
2019-04-25T21:26:51.661Z,10.27
2019-04-25T21:29:21.826Z,10.29
2019-04-25T21:31:51.307Z,10.32
2019-04-25T21:34:27.113Z,10.26
2019-04-25T21:36:52.217Z,10.26
2019-04-25T21:39:24.369Z,10.24
2019-04-25T21:42:07.270Z,10.20
2019-04-25T21:44:36.752Z,10.15
2019-04-25T21:47:06.219Z,10.16
2019-04-25T21:49:35.845Z,10.13
2019-04-25T21:52:05.147Z,10.16
2019-04-25T21:54:34.693Z,10.12
2019-04-25T21:57:04.256Z,10.12
2019-04-25T21:59:33.726Z,10.09
2019-04-25T22:02:03.236Z,10.04
2019-04-25T22:04:38.868Z,10.08
2019-04-25T22:07:05.089Z,10.07
2019-04-25T22:09:34.802Z,10.05
2019-04-25T22:12:07.389Z,10.03
2019-04-25T22:14:38.147Z,10.05
2019-04-25T22:17:07.991Z,10.04
2019-04-25T22:19:37.553Z,10.04
2019-04-25T22:22:07.303Z,10.06
2019-04-25T22:24:36.584Z,10.05
2019-04-25T22:27:07.667Z,10.05
2019-04-25T22:29:38.666Z,10.03
2019-04-25T22:32:09.573Z,10.04
2019-04-25T22:34:51.610Z,10.04
2019-04-25T22:37:12.138Z,10.05
2019-04-25T22:39:41.714Z,10.12
2019-04-25T22:42:11.206Z,10.05
2019-04-25T22:44:41.572Z,10.08
2019-04-25T22:47:10.849Z,10.06
2019-04-25T22:49:40.234Z,10.02
2019-04-25T22:52:11.191Z,10.03
2019-04-25T22:54:40.511Z,9.95
2019-04-25T22:57:09.777Z,9.91
2019-04-25T22:59:39.707Z,9.87
2019-04-25T23:02:11.677Z,9.90
2019-04-25T23:04:42.927Z,9.90
2019-04-25T23:07:12.469Z,9.82
2019-04-25T23:09:41.863Z,9.81
2019-04-25T23:12:11.398Z,9.83
2019-04-25T23:14:41.771Z,9.77
2019-04-25T23:17:11.512Z,9.77
2019-04-25T23:19:41.604Z,9.71
2019-04-25T23:22:11.573Z,9.76
2019-04-25T23:24:42.590Z,9.77
2019-04-25T23:27:31.656Z,9.72
2019-04-25T23:30:01.005Z,9.71
2019-04-25T23:32:31.819Z,9.69
2019-04-25T23:35:01.105Z,9.57
2019-04-25T23:37:30.364Z,9.51
2019-04-25T23:39:59.647Z,9.53
2019-04-25T23:42:28.913Z,9.48
2019-04-25T23:44:58.552Z,9.44
2019-04-25T23:47:28.021Z,9.40
2019-04-25T23:49:57.710Z,9.42
2019-04-25T23:52:27.079Z,9.40
2019-04-25T23:54:56.362Z,9.35
2019-04-25T23:57:25.911Z,9.36
2019-04-25T23:59:55.196Z,9.28
